Clifton, New York
Current Conditions -  °F | °C
As of 9:05 PM on Saturday 22 Nov 2014 (Local Time) from KROC Reporting Station
Light Rain Light Rain  
Wind Chill: 38°   Ceiling: 2000
Heat Index: 45°   Visibility: 10mi
Dew Point: 40°   Wind: 15mph
Humidity: 82%   Direction: 220°SW
Pressure: 29.97"   Gusts: NA
Location:  43.0758°N, 77.8617°W
Report Text: KROC 230205Z 22013KT 10SM -RA OVC020 07/04 A2997 RMK AO2 RAB04 P0000 T00720044
Loading
Personal Weather Stations






























Interactive Weather Map New forecast layout! Learn more

10-Day Weather Forecast

Advertisements
Track Severe Weather on mobile